Time;durP1;ratioP1;P1;durP2;ratioP2;P2;SDS_P1;SDS_P2;PMS_P1;PMS_P2;Temp;Humidity;BMP_temperature;BMP_pressure;BME280_temperature;BME280_humidity;BME280_pressure;Samples;Min_cycle;Max_cycle;Signal;HPM_P1;HPM_P2
2023/12/14 00:03:23;;;;;;;12.13;3.47;;;;;;;-4.45;100.00;101115.06;10412132;28;20045;-67
2023/12/14 00:08:24;;;;;;;13.02;3.15;;;;;;;-4.64;100.00;101081.97;10412201;28;20052;-67
2023/12/14 00:13:24;;;;;;;16.02;3.42;;;;;;;-4.39;100.00;101136.44;10412455;28;20056;-68
2023/12/14 00:18:25;;;;;;;17.13;4.03;;;;;;;-4.38;100.00;101147.66;10413095;28;20090;-67
2023/12/14 00:23:26;;;;;;;20.38;4.25;;;;;;;-4.39;100.00;101138.19;10412081;28;20073;-68
2023/12/14 00:28:27;;;;;;;17.35;3.85;;;;;;;-4.57;100.00;101097.34;10489595;28;20077;-68
2023/12/14 00:33:28;;;;;;;13.13;3.75;;;;;;;-4.37;100.00;101151.94;10584653;28;20066;-68
2023/12/14 00:38:28;;;;;;;14.18;4.40;;;;;;;-4.32;100.00;101149.19;10584940;28;20036;-68
2023/12/14 00:43:29;;;;;;;13.68;4.30;;;;;;;-4.87;100.00;101068.97;10585316;28;20044;-65
2023/12/14 00:48:30;;;;;;;13.82;3.03;;;;;;;-4.69;100.00;101102.03;10584320;28;20043;-66
2023/12/14 00:53:31;;;;;;;10.63;3.38;;;;;;;-4.56;100.00;101143.94;10584367;28;20039;-67
2023/12/14 00:58:31;;;;;;;15.50;3.97;;;;;;;-4.55;100.00;101139.59;10583489;28;20122;-69
2023/12/14 01:03:32;;;;;;;10.77;3.55;;;;;;;-4.56;100.00;101132.72;10585039;28;20096;-66
2023/12/14 01:08:33;;;;;;;13.75;3.72;;;;;;;-4.35;100.00;101155.31;10582724;28;20495;-66
2023/12/14 01:13:34;;;;;;;13.85;3.95;;;;;;;-4.71;100.00;101084.84;10409604;28;20049;-66
2023/12/14 01:18:34;;;;;;;11.02;2.80;;;;;;;-4.40;100.00;101155.50;10410365;28;20041;-66
2023/12/14 01:23:35;;;;;;;8.63;2.83;;;;;;;-4.65;100.00;101095.84;10409226;28;20382;-67
2023/12/14 01:28:36;;;;;;;11.07;3.50;;;;;;;-4.62;100.00;101107.84;10409438;28;20042;-66
2023/12/14 01:33:37;;;;;;;14.15;3.28;;;;;;;-4.73;100.00;101087.47;10409440;28;20094;-66
2023/12/14 01:38:37;;;;;;;11.45;3.33;;;;;;;-4.48;100.00;101143.69;10409702;28;20030;-66
2023/12/14 01:43:38;;;;;;;11.35;3.97;;;;;;;-4.36;100.00;101146.69;10407880;28;20404;-66
2023/12/14 01:48:39;;;;;;;13.20;3.50;;;;;;;-4.35;100.00;101147.53;10409144;28;20045;-66
2023/12/14 01:53:40;;;;;;;12.02;3.50;;;;;;;-4.41;100.00;101156.38;10407428;28;20053;-66
2023/12/14 01:58:41;;;;;;;24.48;4.03;;;;;;;-4.42;100.00;101151.25;10409338;28;20045;-66
2023/12/14 02:03:46;;;;;;;13.15;4.00;;;;;;;-4.55;100.00;101156.00;10409346;28;20554;-66
2023/12/14 02:08:47;;;;;;;12.73;4.07;;;;;;;-4.67;100.00;101156.41;10393641;28;20094;-66
2023/12/14 02:13:47;;;;;;;9.23;3.25;;;;;;;-4.59;100.00;101183.78;10382341;28;20553;-68
2023/12/14 02:18:48;;;;;;;11.88;3.58;;;;;;;-4.48;100.00;101182.59;10404602;28;20038;-65
2023/12/14 02:23:49;;;;;;;16.42;4.28;;;;;;;-4.49;100.00;101188.66;10380178;28;20072;-66
2023/12/14 02:28:50;;;;;;;13.70;3.72;;;;;;;-4.52;100.00;101181.81;10375457;28;20070;-66
2023/12/14 02:33:51;;;;;;;14.35;3.85;;;;;;;-4.33;100.00;101199.38;10402481;28;20049;-66
2023/12/14 02:38:51;;;;;;;6.63;3.38;;;;;;;-4.48;100.00;101187.78;10366577;28;20048;-69
2023/12/14 02:43:52;;;;;;;12.07;3.40;;;;;;;-4.54;100.00;101194.00;10359162;28;20124;-68
2023/12/14 02:48:53;;;;;;;9.80;3.55;;;;;;;-4.71;100.00;101171.22;10367216;28;20053;-66
2023/12/14 02:53:57;;;;;;;11.88;3.53;;;;;;;-4.52;100.00;101191.34;10365539;28;20077;-66
2023/12/14 02:58:57;;;;;;;6.45;3.22;;;;;;;-4.30;100.00;101214.84;10366565;28;20042;-66
2023/12/14 03:03:58;;;;;;;10.60;3.55;;;;;;;-4.18;100.00;101222.19;10364622;28;20042;-66
2023/12/14 03:09:00;;;;;;;10.95;4.20;;;;;;;-4.46;100.00;101199.75;10366089;28;20130;-70
2023/12/14 03:14:00;;;;;;;44.53;4.85;;;;;;;-4.28;100.00;101224.25;10365675;28;20045;-66
2023/12/14 03:19:01;;;;;;;8.98;3.58;;;;;;;-4.53;100.00;101192.25;10365415;28;20118;-67
2023/12/14 03:24:02;;;;;;;9.02;3.28;;;;;;;-4.51;100.00;101200.84;10366043;28;20065;-67
2023/12/14 03:29:03;;;;;;;6.72;3.15;;;;;;;-4.44;100.00;101223.06;10365695;28;20041;-67
2023/12/14 03:34:04;;;;;;;8.50;3.70;;;;;;;-4.41;100.00;101228.16;10373943;28;20505;-67
2023/12/14 03:39:05;;;;;;;8.82;2.92;;;;;;;-4.35;100.00;101264.25;10368219;28;20041;-67
2023/12/14 03:44:06;;;;;;;14.25;2.92;;;;;;;-4.22;100.00;101262.97;10369151;28;20428;-69
2023/12/14 03:49:08;;;;;;;7.78;2.72;;;;;;;-4.24;100.00;101274.31;10371637;28;20145;-70
2023/12/14 03:54:09;;;;;;;7.18;3.53;;;;;;;-4.19;100.00;101277.56;10372551;28;20103;-70
2023/12/14 03:59:10;;;;;;;11.27;2.60;;;;;;;-4.38;100.00;101275.59;10376138;28;20551;-68
2023/12/14 04:04:11;;;;;;;9.25;2.92;;;;;;;-4.38;100.00;101272.16;10406106;28;20044;-69
2023/12/14 04:09:12;;;;;;;6.10;2.70;;;;;;;-4.56;100.00;101252.00;10412587;28;20045;-68
2023/12/14 04:14:12;;;;;;;9.23;3.75;;;;;;;-4.62;100.00;101264.25;10410266;28;20049;-69
2023/12/14 04:19:13;;;;;;;7.10;2.65;;;;;;;-4.52;100.00;101267.38;10411271;28;20041;-68
2023/12/14 04:24:14;;;;;;;7.32;3.30;;;;;;;-4.44;100.00;101268.00;10412059;28;20093;-70
2023/12/14 04:29:15;;;;;;;15.02;3.55;;;;;;;-4.52;100.00;101274.34;10410423;28;20447;-70
2023/12/14 04:34:17;;;;;;;10.90;2.97;;;;;;;-4.68;100.00;101225.56;10411181;28;20097;-71
2023/12/14 04:39:18;;;;;;;8.45;3.03;;;;;;;-4.58;100.00;101265.00;10411338;28;20045;-69
2023/12/14 04:44:19;;;;;;;11.07;3.15;;;;;;;-4.61;100.00;101278.94;10409387;28;20037;-70
2023/12/14 04:49:20;;;;;;;15.10;3.95;;;;;;;-4.45;100.00;101281.03;10410812;28;20546;-67
2023/12/14 04:54:21;;;;;;;16.13;4.25;;;;;;;-4.50;100.00;101257.81;10351981;28;20046;-69
2023/12/14 04:59:22;;;;;;;13.30;3.85;;;;;;;-4.42;100.00;101268.81;10329496;28;20046;-68
2023/12/14 05:04:22;;;;;;;12.23;4.43;;;;;;;-4.41;100.00;101275.69;10328400;28;20406;-68
2023/12/14 05:09:23;;;;;;;8.82;3.63;;;;;;;-4.22;100.00;101285.44;10328965;28;20042;-68
2023/12/14 05:14:24;;;;;;;10.27;3.78;;;;;;;-4.28;100.00;101257.13;10328645;28;20426;-68
2023/12/14 05:19:25;;;;;;;15.07;4.10;;;;;;;-4.26;100.00;101282.13;10329565;28;20052;-68
2023/12/14 05:24:26;;;;;;;14.55;4.07;;;;;;;-4.34;100.00;101260.75;10329057;28;20050;-68
2023/12/14 05:29:26;;;;;;;13.90;3.88;;;;;;;-4.73;100.00;101208.47;10327550;28;20478;-68
2023/12/14 05:34:27;;;;;;;14.20;3.60;;;;;;;-4.50;100.00;101231.06;10328138;28;20050;-68
2023/12/14 05:39:28;;;;;;;11.43;3.78;;;;;;;-4.47;100.00;101242.16;10328102;28;20038;-67
2023/12/14 05:44:29;;;;;;;10.52;3.60;;;;;;;-4.40;100.00;101242.81;10328907;28;20047;-67
2023/12/14 05:49:30;;;;;;;14.57;3.92;;;;;;;-4.09;100.00;101296.28;10328139;28;20499;-67
2023/12/14 05:54:30;;;;;;;13.35;4.05;;;;;;;-4.04;100.00;101282.25;10327378;28;20050;-67
2023/12/14 05:59:32;;;;;;;11.55;3.42;;;;;;;-4.25;100.00;101237.09;10327763;28;20047;-70
2023/12/14 06:04:32;;;;;;;13.50;3.65;;;;;;;-4.10;100.00;101263.44;10328303;28;20049;-67
2023/12/14 06:09:34;;;;;;;18.75;4.57;;;;;;;-3.87;100.00;101299.00;10327610;28;20043;-68
2023/12/14 06:14:35;;;;;;;13.57;3.72;;;;;;;-3.77;100.00;101301.25;10327573;28;20474;-68
2023/12/14 06:19:36;;;;;;;15.73;3.67;;;;;;;-3.68;100.00;101293.13;10327293;28;20049;-68
2023/12/14 06:24:37;;;;;;;19.67;3.97;;;;;;;-3.46;100.00;101310.56;10327731;28;20071;-68
2023/12/14 06:29:37;;;;;;;12.85;3.90;;;;;;;-3.55;100.00;101285.75;10326457;28;20038;-68
2023/12/14 06:34:39;;;;;;;11.70;3.95;;;;;;;-3.82;100.00;101256.41;10326308;28;20078;-68
2023/12/14 06:39:43;;;;;;;10.77;3.00;;;;;;;-3.37;100.00;101307.63;10326831;28;20038;-68
2023/12/14 06:44:44;;;;;;;14.30;4.10;;;;;;;-3.45;100.00;101273.25;10326801;28;20038;-68
2023/12/14 06:49:44;;;;;;;16.15;4.53;;;;;;;-3.23;100.00;101320.97;10326186;28;20054;-68
2023/12/14 06:54:45;;;;;;;9.27;3.17;;;;;;;-3.35;100.00;101321.41;10325620;28;20111;-67
2023/12/14 06:59:46;;;;;;;11.57;3.35;;;;;;;-3.52;100.00;101318.56;10325672;28;20387;-67
2023/12/14 07:04:47;;;;;;;12.63;3.78;;;;;;;-3.44;100.00;101290.53;10325305;28;20046;-69
2023/12/14 07:09:48;;;;;;;9.07;3.75;;;;;;;-3.27;100.00;101301.16;10326101;28;20089;-68
2023/12/14 07:14:49;;;;;;;11.75;3.30;;;;;;;-3.23;100.00;101283.72;10325723;28;20057;-69
2023/12/14 07:19:51;;;;;;;10.20;3.85;;;;;;;-3.17;100.00;101293.91;10325674;28;20502;-68
2023/12/14 07:24:52;;;;;;;10.73;3.70;;;;;;;-3.54;100.00;101253.66;10325759;28;20131;-69
2023/12/14 07:29:53;;;;;;;9.40;3.25;;;;;;;-3.55;100.00;101256.34;10326117;28;20131;-68
2023/12/14 07:34:54;;;;;;;19.27;3.85;;;;;;;-3.55;100.00;101256.34;10324653;28;20038;-68
2023/12/14 07:39:55;;;;;;;13.57;4.18;;;;;;;-3.21;100.00;101313.94;10324668;28;20092;-70
2023/12/14 07:44:56;;;;;;;17.17;4.15;;;;;;;-3.57;100.00;101263.31;10325178;28;20065;-69
2023/12/14 07:49:57;;;;;;;15.73;4.30;;;;;;;-3.44;100.00;101264.56;10324967;28;20054;-68
2023/12/14 07:54:57;;;;;;;12.20;4.28;;;;;;;-3.07;100.00;101308.25;10324857;28;20069;-69
2023/12/14 07:59:58;;;;;;;11.50;3.88;;;;;;;-3.04;100.00;101289.09;10324695;28;20092;-68
2023/12/14 08:04:59;;;;;;;16.67;4.65;;;;;;;-2.81;100.00;101290.81;10323949;28;20133;-69
2023/12/14 08:10:00;;;;;;;18.35;4.05;;;;;;;-2.76;100.00;101263.69;10324874;28;20070;-72
2023/12/14 08:15:01;;;;;;;15.93;3.92;;;;;;;-3.00;100.00;101216.09;10324260;28;20409;-68
2023/12/14 08:20:03;;;;;;;9.43;3.83;;;;;;;-2.65;100.00;101262.44;10330693;28;20054;-68
2023/12/14 08:25:05;;;;;;;10.05;4.07;;;;;;;-2.65;100.00;101241.66;10331059;28;20100;-68
2023/12/14 08:30:06;;;;;;;16.65;3.65;;;;;;;-2.72;100.00;101229.78;10330446;28;20039;-68
2023/12/14 08:35:07;;;;;;;13.32;4.28;;;;;;;-2.69;100.00;101240.94;10330907;28;20042;-68
2023/12/14 08:40:09;;;;;;;11.98;4.00;;;;;;;-3.12;100.00;101190.59;10330375;28;20413;-68
2023/12/14 08:45:11;;;;;;;11.38;4.13;;;;;;;-2.83;100.00;101249.25;10329887;28;20041;-69
2023/12/14 08:50:12;;;;;;;17.70;5.53;;;;;;;-3.10;100.00;101195.75;10333997;28;20562;-69
2023/12/14 08:55:13;;;;;;;13.13;3.70;;;;;;;-2.87;100.00;101252.91;10330295;28;20091;-69
2023/12/14 09:00:14;;;;;;;9.65;4.00;;;;;;;-2.73;100.00;101248.91;10328099;28;20069;-69
2023/12/14 09:05:16;;;;;;;18.73;4.43;;;;;;;-2.79;100.00;101239.56;10329564;28;20425;-69
2023/12/14 09:10:17;;;;;;;17.55;4.60;;;;;;;-2.72;100.00;101240.19;10329044;28;20049;-69
2023/12/14 09:15:18;;;;;;;8.73;3.58;;;;;;;-2.62;100.00;101228.50;10328828;28;20398;-70
2023/12/14 09:20:19;;;;;;;17.05;4.30;;;;;;;-2.74;100.00;101175.22;10329163;28;20053;-68
2023/12/14 09:25:20;;;;;;;11.00;4.18;;;;;;;-2.36;100.00;101230.06;10329075;28;20038;-69
2023/12/14 09:30:21;;;;;;;16.30;4.20;;;;;;;-2.58;100.00;101207.50;10327581;28;20047;-69
2023/12/14 09:35:22;;;;;;;12.15;4.38;;;;;;;-2.55;100.00;101206.53;10328679;28;20473;-68
2023/12/14 09:40:23;;;;;;;13.25;3.95;;;;;;;-2.77;100.00;101167.56;10328884;28;20042;-67
2023/12/14 09:45:29;;;;;;;14.10;3.90;;;;;;;-2.47;100.00;101207.06;10328481;28;20038;-68
2023/12/14 09:50:31;;;;;;;13.30;4.15;;;;;;;-2.47;100.00;101190.63;10328436;28;20425;-67
2023/12/14 09:55:32;;;;;;;19.48;4.90;;;;;;;-2.34;100.00;101200.44;10327508;28;20054;-68
2023/12/14 10:00:38;;;;;;;11.20;4.05;;;;;;;-2.25;100.00;101199.19;10328167;28;20053;-68
2023/12/14 10:05:40;;;;;;;14.98;4.65;;;;;;;-2.39;100.00;101178.16;10327098;28;20043;-68
2023/12/14 10:10:41;;;;;;;17.98;3.95;;;;;;;-2.27;100.00;101197.56;10327588;28;20096;-68
2023/12/14 10:15:43;;;;;;;15.70;3.70;;;;;;;-2.38;100.00;101180.66;10327569;28;20567;-67
2023/12/14 10:20:45;;;;;;;13.68;4.47;;;;;;;-2.40;100.00;101168.63;10327422;28;20042;-67
2023/12/14 10:25:46;;;;;;;10.57;4.22;;;;;;;-2.38;100.00;101174.63;10327528;28;20045;-67
2023/12/14 10:30:47;;;;;;;13.82;3.78;;;;;;;-2.37;100.00;101163.28;10327046;28;20035;-68
2023/12/14 10:35:48;;;;;;;9.13;4.00;;;;;;;-2.36;100.00;101145.03;10326381;28;20464;-68
2023/12/14 10:40:49;;;;;;;13.25;4.18;;;;;;;-2.33;100.00;101134.47;10325934;28;20490;-68
2023/12/14 10:45:53;;;;;;;11.65;4.20;;;;;;;-2.39;100.00;101124.34;10326701;28;20441;-69
2023/12/14 10:50:56;;;;;;;14.55;4.22;;;;;;;-2.37;100.00;101138.09;10325967;28;20050;-68
2023/12/14 10:56:00;;;;;;;9.40;3.95;;;;;;;-2.32;100.00;101130.13;10326379;28;20162;-67
2023/12/14 11:01:01;;;;;;;10.05;3.42;;;;;;;-2.43;100.00;101137.53;10326274;28;20058;-67
2023/12/14 11:06:04;;;;;;;5.60;2.53;;;;;;;-2.44;100.00;101123.69;10325611;28;20034;-68
2023/12/14 11:11:11;;;;;;;5.75;2.95;;;;;;;-2.36;100.00;101102.53;10325890;28;20387;-69
2023/12/14 11:16:15;;;;;;;11.68;3.25;;;;;;;-2.53;100.00;101098.06;10326291;28;20123;-67
2023/12/14 11:21:22;;;;;;;13.57;3.53;;;;;;;-2.50;100.00;101136.94;10325670;28;20498;-67
2023/12/14 11:26:27;;;;;;;11.77;4.10;;;;;;;-2.77;100.00;101095.59;10325583;28;20088;-68
2023/12/14 11:31:29;;;;;;;10.55;3.20;;;;;;;-2.24;100.00;101181.81;10324546;28;20065;-68
2023/12/14 11:36:29;;;;;;;12.40;3.60;;;;;;;-2.27;100.00;101195.84;10324811;28;20046;-68
2023/12/14 11:41:31;;;;;;;10.30;4.28;;;;;;;-2.20;100.00;101202.47;10324824;28;20133;-67
2023/12/14 11:46:32;;;;;;;8.27;3.08;;;;;;;-2.11;100.00;101212.47;10325168;28;20042;-68
2023/12/14 11:51:33;;;;;;;16.30;3.33;;;;;;;-2.45;100.00;101158.44;10326733;28;20062;-68
2023/12/14 11:56:34;;;;;;;16.02;3.60;;;;;;;-2.18;100.00;101223.22;10331457;28;20141;-68
2023/12/14 12:01:35;;;;;;;8.18;3.30;;;;;;;-2.08;100.00;101212.34;10331034;28;20066;-72
2023/12/14 12:06:36;;;;;;;12.52;3.30;;;;;;;-2.11;100.00;101217.69;10332226;28;20056;-68
2023/12/14 12:11:37;;;;;;;13.35;3.72;;;;;;;-2.22;100.00;101224.25;10331379;28;20047;-69
2023/12/14 12:16:39;;;;;;;14.43;3.83;;;;;;;-2.31;100.00;101210.72;10330998;28;20482;-69
2023/12/14 12:21:39;;;;;;;8.80;3.20;;;;;;;-2.59;100.00;101168.56;10331259;28;20502;-70
2023/12/14 12:26:40;;;;;;;11.40;4.35;;;;;;;-2.35;100.00;101216.97;10330580;28;20066;-69
2023/12/14 12:31:42;;;;;;;10.10;3.85;;;;;;;-2.44;100.00;101216.50;10374560;28;20045;-67
2023/12/14 12:36:43;;;;;;;18.42;3.97;;;;;;;-2.42;100.00;101230.28;10389365;28;20532;-65
2023/12/14 12:41:44;;;;;;;28.83;6.05;;;;;;;-2.37;100.00;101242.19;10378983;28;20052;-68
2023/12/14 12:46:45;;;;;;;14.80;7.90;;;;;;;-2.42;100.00;101223.34;10384299;28;20048;-70
2023/12/14 12:51:45;;;;;;;24.35;11.32;;;;;;;-2.41;100.00;101234.59;10381490;28;20054;-69
2023/12/14 12:56:47;;;;;;;19.55;9.20;;;;;;;-2.41;100.00;101245.00;10388099;28;20072;-69
2023/12/14 13:01:48;;;;;;;20.80;5.97;;;;;;;-2.39;100.00;101264.84;10393564;28;20441;-70
2023/12/14 13:06:49;;;;;;;13.80;4.18;;;;;;;-2.45;100.00;101270.31;10386137;28;20060;-72
2023/12/14 13:11:50;;;;;;;13.70;4.63;;;;;;;-2.65;100.00;101252.88;10391329;28;20041;-69
2023/12/14 13:16:51;;;;;;;13.48;4.68;;;;;;;-2.42;100.00;101298.81;10393271;28;20085;-70
2023/12/14 13:21:52;;;;;;;19.83;4.50;;;;;;;-2.41;100.00;101279.66;10382839;28;20136;-70
2023/12/14 13:26:53;;;;;;;11.35;4.40;;;;;;;-2.51;100.00;101270.56;10387482;28;20042;-69
2023/12/14 13:31:54;;;;;;;14.30;4.90;;;;;;;-2.35;100.00;101295.03;10385950;28;20554;-69
2023/12/14 13:36:55;;;;;;;13.05;4.07;;;;;;;-2.35;100.00;101302.84;10380234;28;20094;-68
2023/12/14 13:41:56;;;;;;;14.43;3.80;;;;;;;-2.64;100.00;101248.53;10373198;28;20497;-69
2023/12/14 13:46:57;;;;;;;15.45;3.60;;;;;;;-2.38;100.00;101302.13;10373077;28;20170;-71
2023/12/14 13:51:58;;;;;;;12.70;3.97;;;;;;;-2.78;100.00;101236.94;10393425;28;20061;-70
2023/12/14 13:56:59;;;;;;;17.20;4.13;;;;;;;-2.58;100.00;101285.53;10328159;28;20106;-70
2023/12/14 14:01:59;;;;;;;8.93;3.45;;;;;;;-2.87;100.00;101247.69;10369241;28;20150;-70
2023/12/14 14:07:00;;;;;;;14.40;6.72;;;;;;;-2.62;100.00;101302.19;10408525;28;20053;-70
2023/12/14 14:12:01;;;;;;;17.30;9.07;;;;;;;-2.56;100.00;101307.16;10402531;28;20049;-70
2023/12/14 14:17:02;;;;;;;13.80;4.60;;;;;;;-2.63;100.00;101310.91;10377022;28;20042;-69
2023/12/14 14:22:04;;;;;;;17.20;4.25;;;;;;;-2.68;100.00;101298.97;10367655;28;20042;-70
2023/12/14 14:27:05;;;;;;;17.83;3.85;;;;;;;-2.72;100.00;101305.19;10379910;28;20042;-70
2023/12/14 14:32:06;;;;;;;18.65;4.90;;;;;;;-2.79;100.00;101291.59;10367041;28;20067;-70
2023/12/14 14:37:07;;;;;;;13.45;4.53;;;;;;;-2.80;100.00;101301.16;10370649;28;20050;-69
2023/12/14 14:42:07;;;;;;;20.33;5.30;;;;;;;-2.82;100.00;101307.31;10399620;28;20049;-69
2023/12/14 14:47:09;;;;;;;15.45;4.30;;;;;;;-2.95;100.00;101288.75;10407754;28;20087;-69
2023/12/14 14:52:10;;;;;;;20.08;4.25;;;;;;;-2.94;100.00;101294.78;10388984;28;20093;-69
2023/12/14 14:57:12;;;;;;;21.92;3.97;;;;;;;-3.06;100.00;101283.94;10371486;28;20057;-70
2023/12/14 15:02:13;;;;;;;14.48;3.75;;;;;;;-3.09;100.00;101304.00;10379044;28;20057;-69
2023/12/14 15:07:14;;;;;;;13.40;3.88;;;;;;;-3.25;100.00;101280.34;10369464;28;20405;-69
2023/12/14 15:12:15;;;;;;;11.38;3.10;;;;;;;-3.19;100.00;101303.50;10380535;28;20409;-70
2023/12/14 15:17:18;;;;;;;22.27;4.95;;;;;;;-3.30;100.00;101285.69;10388867;28;20042;-69
2023/12/14 15:22:19;;;;;;;16.70;4.30;;;;;;;-3.74;100.00;101215.44;10380308;28;20041;-69
2023/12/14 15:27:21;;;;;;;24.05;4.32;;;;;;;-3.70;100.00;101217.03;10378527;28;20041;-69
2023/12/14 15:32:22;;;;;;;18.17;4.43;;;;;;;-3.45;100.00;101260.28;10392701;28;20208;-69
2023/12/14 15:37:23;;;;;;;26.08;5.35;;;;;;;-3.34;100.00;101271.13;10398750;28;20068;-69
2023/12/14 15:42:24;;;;;;;14.10;5.28;;;;;;;-3.62;100.00;101229.75;10374103;28;20102;-69
2023/12/14 15:47:25;;;;;;;14.38;4.32;;;;;;;-3.25;100.00;101273.38;10376622;28;20061;-70
2023/12/14 15:52:27;;;;;;;14.68;4.78;;;;;;;-3.54;100.00;101222.50;10396718;28;20057;-69
2023/12/14 15:57:29;;;;;;;16.60;4.38;;;;;;;-3.10;100.00;101284.13;10401466;28;20060;-69
2023/12/14 16:02:30;;;;;;;15.98;4.30;;;;;;;-3.06;100.00;101272.69;10348607;28;20416;-69
2023/12/14 16:07:31;;;;;;;16.48;4.30;;;;;;;-3.03;100.00;101273.41;10380734;28;20050;-68
2023/12/14 16:12:33;;;;;;;20.38;4.80;;;;;;;-3.08;100.00;101271.91;10423543;28;20053;-69
2023/12/14 16:17:34;;;;;;;15.48;4.82;;;;;;;-2.97;100.00;101279.28;10371570;28;20046;-70
2023/12/14 16:22:36;;;;;;;20.30;4.97;;;;;;;-2.89;100.00;101288.50;10388703;28;20145;-70
2023/12/14 16:27:37;;;;;;;34.47;5.32;;;;;;;-2.83;100.00;101290.88;10408143;28;20428;-70
2023/12/14 16:32:38;;;;;;;18.65;4.97;;;;;;;-2.84;100.00;101283.97;10386016;28;20135;-69
2023/12/14 16:37:39;;;;;;;19.17;5.22;;;;;;;-2.76;100.00;101275.88;10374178;28;20046;-68
2023/12/14 16:42:41;;;;;;;14.10;5.13;;;;;;;-2.78;100.00;101283.75;10393872;28;20044;-69
2023/12/14 16:47:42;;;;;;;15.90;4.75;;;;;;;-3.06;100.00;101199.91;10379825;28;20488;-70
2023/12/14 16:52:43;;;;;;;19.25;5.20;;;;;;;-2.82;100.00;101265.69;10392336;28;20057;-70
2023/12/14 16:57:45;;;;;;;13.73;4.70;;;;;;;-2.82;100.00;101276.94;10380168;28;20046;-70
2023/12/14 17:02:46;;;;;;;21.70;5.90;;;;;;;-2.87;100.00;101280.63;10370245;28;20046;-69
2023/12/14 17:07:49;;;;;;;14.18;5.03;;;;;;;-2.84;100.00;101278.78;10369952;28;20472;-69
2023/12/14 17:12:51;;;;;;;16.27;4.38;;;;;;;-2.87;100.00;101268.50;10368512;28;20044;-69
2023/12/14 17:17:52;;;;;;;18.55;4.72;;;;;;;-3.15;100.00;101228.88;10384612;28;20038;-70
2023/12/14 17:22:53;;;;;;;18.35;4.10;;;;;;;-2.91;100.00;101268.66;10372558;28;20052;-69
2023/12/14 17:27:56;;;;;;;13.98;3.88;;;;;;;-2.90;100.00;101259.94;10402148;28;20041;-69
2023/12/14 17:32:57;;;;;;;18.55;4.20;;;;;;;-3.00;100.00;101257.69;10410028;28;20056;-69
2023/12/14 17:37:59;;;;;;;15.10;4.65;;;;;;;-3.57;100.00;101159.44;10409953;28;20086;-69
2023/12/14 17:43:00;;;;;;;21.60;4.38;;;;;;;-2.97;100.00;101261.09;10409084;28;20459;-69
2023/12/14 17:48:01;;;;;;;13.20;4.20;;;;;;;-3.00;100.00;101249.91;10410407;28;20049;-70
2023/12/14 17:53:02;;;;;;;22.48;4.57;;;;;;;-3.00;100.00;101256.88;10403685;28;20054;-69
2023/12/14 17:58:03;;;;;;;12.98;4.43;;;;;;;-3.12;100.00;101249.53;10377701;28;20145;-69
2023/12/14 18:03:04;;;;;;;19.75;4.15;;;;;;;-3.17;100.00;101230.66;10368841;28;20066;-69
2023/12/14 18:08:05;;;;;;;9.85;3.88;;;;;;;-3.38;100.00;101172.56;10368812;28;20053;-70
2023/12/14 18:13:06;;;;;;;10.95;3.67;;;;;;;-3.02;100.00;101223.16;10367629;28;20054;-74
2023/12/14 18:18:07;;;;;;;16.38;4.40;;;;;;;-3.12;100.00;101200.16;10366565;28;20046;-69
2023/12/14 18:23:07;;;;;;;16.55;3.78;;;;;;;-3.03;100.00;101205.84;10367873;28;20075;-70
2023/12/14 18:28:08;;;;;;;15.15;3.92;;;;;;;-3.15;100.00;101189.88;10368223;28;20134;-70
2023/12/14 18:33:11;;;;;;;20.75;4.28;;;;;;;-3.15;100.00;101189.88;10366848;28;20044;-70
2023/12/14 18:38:12;;;;;;;15.02;3.20;;;;;;;-3.24;100.00;101167.69;10382134;28;20044;-70
2023/12/14 18:43:13;;;;;;;16.00;4.63;;;;;;;-3.20;100.00;101166.69;10407393;28;20505;-70
2023/12/14 18:48:14;;;;;;;20.48;3.97;;;;;;;-3.31;100.00;101143.72;10407200;28;20033;-70
2023/12/14 18:53:15;;;;;;;24.15;4.13;;;;;;;-3.11;100.00;101155.06;10406787;28;20069;-70
2023/12/14 18:58:16;;;;;;;22.80;4.28;;;;;;;-3.71;100.00;101051.75;10408103;28;20044;-69
2023/12/14 19:03:17;;;;;;;18.33;4.05;;;;;;;-3.12;100.00;101150.78;10405973;28;20098;-69
2023/12/14 19:08:17;;;;;;;22.88;3.80;;;;;;;-3.54;100.00;101073.63;10406796;28;20045;-70
2023/12/14 19:13:18;;;;;;;13.27;3.70;;;;;;;-3.19;100.00;101112.94;10407152;28;20041;-70
2023/12/14 19:18:19;;;;;;;11.40;3.58;;;;;;;-3.03;100.00;101127.84;10406902;28;20076;-70
2023/12/14 19:23:20;;;;;;;14.43;4.00;;;;;;;-3.11;100.00;101108.28;10398846;28;20412;-70
2023/12/14 19:28:20;;;;;;;12.60;3.28;;;;;;;-3.01;100.00;101128.66;10365433;28;20136;-70
2023/12/14 19:33:21;;;;;;;16.33;3.72;;;;;;;-3.04;100.00;101120.13;10365314;28;20053;-69
2023/12/14 19:38:22;;;;;;;19.40;4.03;;;;;;;-3.02;100.00;101120.88;10365764;28;20090;-72
2023/12/14 19:43:23;;;;;;;12.05;3.90;;;;;;;-3.01;100.00;101114.81;10364452;28;20038;-70
2023/12/14 19:48:24;;;;;;;20.63;4.10;;;;;;;-2.93;100.00;101117.94;10364326;28;20124;-69
2023/12/14 19:53:26;;;;;;;18.65;3.80;;;;;;;-2.88;100.00;101120.34;10364614;28;20078;-69
2023/12/14 19:58:27;;;;;;;19.35;3.78;;;;;;;-2.91;100.00;101128.28;10380550;28;20049;-70
2023/12/14 20:03:28;;;;;;;14.90;3.50;;;;;;;-3.04;100.00;101120.13;10406734;28;20481;-69
2023/12/14 20:08:28;;;;;;;18.48;4.22;;;;;;;-2.84;100.00;101125.38;10406337;28;20546;-69
2023/12/14 20:13:29;;;;;;;11.30;3.35;;;;;;;-2.81;100.00;101133.03;10409069;28;20041;-69
2023/12/14 20:18:30;;;;;;;9.75;2.92;;;;;;;-2.85;100.00;101110.66;10411946;28;20045;-70
2023/12/14 20:23:32;;;;;;;8.93;3.25;;;;;;;-2.72;100.00;101146.56;10412742;28;20157;-69
2023/12/14 20:28:33;;;;;;;10.90;3.38;;;;;;;-2.66;100.00;101160.16;10411699;28;20070;-69
2023/12/14 20:33:34;;;;;;;9.98;2.97;;;;;;;-2.59;100.00;101174.59;10412502;28;20044;-69
2023/12/14 20:38:34;;;;;;;11.20;2.40;;;;;;;-2.95;100.00;101119.75;10411586;28;20045;-70
2023/12/14 20:43:35;;;;;;;13.23;3.22;;;;;;;-2.56;100.00;101178.84;10411240;28;20120;-71
2023/12/14 20:48:39;;;;;;;9.40;2.65;;;;;;;-2.53;100.00;101173.50;10412925;28;20053;-70
2023/12/14 20:53:41;;;;;;;8.18;2.55;;;;;;;-2.88;100.00;101135.94;10411751;28;20530;-70
2023/12/14 20:58:43;;;;;;;12.07;3.00;;;;;;;-2.83;100.00;101162.59;10410147;28;20046;-68
2023/12/14 21:03:49;;;;;;;13.00;3.30;;;;;;;-2.94;100.00;101151.78;10410683;28;20128;-68
2023/12/14 21:08:50;;;;;;;14.32;3.30;;;;;;;-2.93;100.00;101143.94;10411014;28;20040;-71
2023/12/14 21:13:52;;;;;;;17.10;2.65;;;;;;;-2.98;100.00;101143.28;10393428;28;20140;-68
2023/12/14 21:18:53;;;;;;;8.80;2.70;;;;;;;-2.93;100.00;101154.34;10369992;28;20045;-68
2023/12/14 21:23:53;;;;;;;13.68;2.95;;;;;;;-2.94;100.00;101155.22;10368712;28;20529;-68
2023/12/14 21:28:54;;;;;;;18.02;3.83;;;;;;;-3.01;100.00;101138.19;10369399;28;20120;-68
2023/12/14 21:33:55;;;;;;;12.32;3.20;;;;;;;-3.08;100.00;101150.59;10369844;28;20481;-68
2023/12/14 21:38:56;;;;;;;14.82;3.63;;;;;;;-3.19;100.00;101123.34;10368680;28;20506;-68
2023/12/14 21:43:57;;;;;;;8.75;3.10;;;;;;;-2.97;100.00;101149.31;10368575;28;20090;-68
2023/12/14 21:48:57;;;;;;;12.52;3.45;;;;;;;-2.91;100.00;101160.31;10368689;28;20546;-68
2023/12/14 21:53:58;;;;;;;18.23;3.83;;;;;;;-3.01;100.00;101131.25;10368769;28;20516;-68
2023/12/14 21:58:59;;;;;;;15.98;3.95;;;;;;;-2.87;100.00;101145.41;10368048;28;20064;-68
2023/12/14 22:04:01;;;;;;;21.92;4.43;;;;;;;-2.86;100.00;101136.72;10368504;28;20046;-68
2023/12/14 22:09:02;;;;;;;24.15;4.65;;;;;;;-2.85;100.00;101134.06;10367735;28;20528;-68
2023/12/14 22:14:03;;;;;;;19.27;4.05;;;;;;;-3.00;100.00;101095.69;10368485;28;20041;-68
2023/12/14 22:19:03;;;;;;;16.10;3.88;;;;;;;-2.74;100.00;101135.38;10367273;28;20516;-68
2023/12/14 22:24:04;;;;;;;12.25;4.13;;;;;;;-2.91;100.00;101104.88;10367859;28;20034;-68
2023/12/14 22:29:05;;;;;;;19.00;4.05;;;;;;;-2.99;100.00;101113.84;10367071;28;20053;-68
2023/12/14 22:34:06;;;;;;;22.38;3.92;;;;;;;-2.82;100.00;101120.09;10366497;28;20046;-69